createdAt,value
2023-03-22T00:01:16.793Z,2.20
2023-03-22T00:03:44.375Z,2.70
2023-03-22T00:06:11.182Z,2.67
2023-03-22T00:08:39.610Z,2.70
2023-03-22T00:11:06.834Z,2.42
2023-03-22T00:13:35.724Z,2.72
2023-03-22T00:16:02.493Z,2.30
2023-03-22T00:18:30.056Z,2.65
2023-03-22T00:20:58.909Z,2.50
2023-03-22T00:23:26.075Z,2.95
2023-03-22T00:25:52.758Z,2.70
2023-03-22T00:28:19.784Z,2.73
2023-03-22T00:30:59.401Z,3.03
2023-03-22T00:33:26.675Z,2.60
2023-03-22T00:35:57.660Z,2.50
2023-03-22T00:38:39.467Z,2.60
2023-03-22T00:41:10.516Z,2.60
2023-03-22T00:43:37.676Z,2.55
2023-03-22T00:46:05.105Z,2.50
2023-03-22T00:48:31.710Z,2.70
2023-03-22T00:50:58.403Z,2.40
2023-03-22T00:53:25.052Z,2.50
2023-03-22T00:55:51.969Z,2.60
2023-03-22T00:58:18.431Z,2.83
2023-03-22T01:00:44.994Z,2.50
2023-03-22T01:03:11.718Z,2.75
2023-03-22T01:05:38.261Z,2.70
2023-03-22T01:08:05.978Z,3.17
2023-03-22T01:10:32.518Z,2.80
2023-03-22T01:12:59.028Z,3.25
2023-03-22T01:15:25.465Z,2.67
2023-03-22T01:17:52.236Z,2.73
2023-03-22T01:20:19.072Z,3.30
2023-03-22T01:22:45.636Z,3.80
2023-03-22T01:25:12.160Z,3.72
2023-03-22T01:27:38.938Z,3.97
2023-03-22T01:30:06.712Z,4.37
2023-03-22T01:36:01.558Z,4.90
2023-03-22T01:38:28.094Z,5.43
2023-03-22T01:40:54.620Z,6.15
2023-03-22T01:43:21.407Z,6.07
2023-03-22T01:45:49.829Z,7.05
2023-03-22T01:48:30.041Z,6.70
2023-03-22T01:51:00.358Z,7.10
2023-03-22T01:53:27.027Z,7.30
2023-03-22T01:55:57.540Z,7.40
2023-03-22T01:58:24.570Z,8.23
2023-03-22T02:00:52.868Z,7.75
2023-03-22T02:03:27.264Z,8.80
2023-03-22T02:05:54.789Z,8.02
2023-03-22T02:08:21.368Z,8.90
2023-03-22T02:10:48.206Z,8.18
2023-03-22T02:13:28.691Z,9.38
2023-03-22T02:16:04.201Z,9.10
2023-03-22T02:18:33.915Z,8.98
2023-03-22T02:21:25.346Z,9.50
2023-03-22T02:23:54.620Z,9.82
2023-03-22T02:27:00.509Z,9.45
2023-03-22T02:29:37.081Z,9.05
2023-03-22T02:32:37.167Z,8.73
2023-03-22T02:35:09.927Z,9.40
2023-03-22T02:38:02.291Z,10.68
2023-03-22T02:40:43.193Z,9.05
2023-03-22T02:43:18.401Z,9.70
2023-03-22T02:45:57.061Z,9.63
2023-03-22T02:48:42.295Z,9.00
2023-03-22T02:51:18.891Z,9.50
2023-03-22T02:53:55.356Z,9.15
2023-03-22T02:56:27.543Z,9.32
2023-03-22T02:58:58.266Z,8.88
2023-03-22T03:01:38.730Z,8.83
2023-03-22T03:04:10.809Z,8.40
2023-03-22T03:06:42.704Z,8.50
2023-03-22T03:09:09.690Z,8.35
2023-03-22T03:11:36.245Z,8.80
2023-03-22T03:14:02.790Z,8.27
2023-03-22T03:16:32.458Z,8.13
2023-03-22T03:19:27.950Z,7.72
2023-03-22T03:22:17.490Z,8.82
2023-03-22T03:24:59.047Z,7.88
2023-03-22T03:27:50.893Z,7.60
2023-03-22T03:30:30.617Z,8.05
2023-03-22T03:33:05.094Z,7.90
2023-03-22T03:35:37.723Z,7.95
2023-03-22T03:38:09.783Z,7.65
2023-03-22T03:40:47.283Z,8.07
2023-03-22T03:43:15.136Z,7.90
2023-03-22T03:45:41.861Z,7.90
2023-03-22T03:48:18.226Z,8.07
2023-03-22T03:50:45.337Z,7.35
2023-03-22T03:53:11.778Z,7.67
2023-03-22T03:55:38.489Z,8.13
2023-03-22T03:58:04.985Z,7.25
2023-03-22T04:00:31.511Z,7.75
2023-03-22T04:02:57.975Z,6.78
2023-03-22T04:05:24.503Z,6.83
2023-03-22T04:07:51.214Z,6.57
2023-03-22T04:10:17.788Z,6.30
2023-03-22T04:12:44.415Z,6.95
2023-03-22T04:15:11.739Z,6.57
2023-03-22T04:17:39.412Z,6.70
2023-03-22T04:20:08.219Z,6.40
2023-03-22T04:22:34.866Z,5.88
2023-03-22T04:25:01.640Z,6.28
2023-03-22T04:27:28.347Z,5.90
2023-03-22T04:29:54.940Z,5.83
2023-03-22T04:32:22.811Z,6.15
2023-03-22T04:34:50.445Z,5.38
2023-03-22T04:37:17.893Z,5.03
2023-03-22T04:39:45.185Z,5.40
2023-03-22T04:42:12.192Z,5.50
2023-03-22T04:44:38.721Z,5.00
2023-03-22T04:47:05.431Z,4.68
2023-03-22T04:49:32.163Z,5.15
2023-03-22T04:51:58.730Z,4.80
2023-03-22T04:54:25.275Z,4.23
2023-03-22T04:56:51.937Z,4.60
2023-03-22T04:59:19.573Z,4.07
2023-03-22T05:01:47.251Z,4.20
2023-03-22T05:04:14.530Z,4.40
2023-03-22T05:06:41.075Z,4.03
2023-03-22T05:09:08.239Z,4.07
2023-03-22T05:11:35.307Z,3.67
2023-03-22T05:14:02.552Z,4.03
2023-03-22T05:16:29.082Z,3.45
2023-03-22T05:18:55.514Z,3.27
2023-03-22T05:21:24.565Z,3.33
2023-03-22T05:23:51.661Z,3.35
2023-03-22T05:26:18.308Z,3.35
2023-03-22T05:28:44.845Z,3.03
2023-03-22T05:31:11.805Z,3.10
2023-03-22T05:33:38.567Z,3.25
2023-03-22T05:36:05.307Z,2.92
2023-03-22T05:38:31.885Z,2.90
2023-03-22T05:40:58.408Z,2.60
2023-03-22T05:43:24.933Z,2.80
2023-03-22T05:45:51.456Z,3.00
2023-03-22T05:48:17.981Z,2.63
2023-03-22T05:50:44.663Z,2.50
2023-03-22T05:53:11.123Z,3.00
2023-03-22T05:55:38.158Z,2.60
2023-03-22T05:58:05.293Z,2.25
2023-03-22T06:00:32.020Z,2.72
2023-03-22T06:02:59.720Z,2.33
2023-03-22T06:05:26.348Z,2.60
2023-03-22T06:07:52.981Z,2.43
2023-03-22T06:10:19.588Z,2.40
2023-03-22T06:12:46.081Z,2.30
2023-03-22T06:15:12.679Z,2.35
2023-03-22T06:17:39.611Z,2.40
2023-03-22T06:20:06.770Z,2.40
2023-03-22T06:22:33.270Z,2.63
2023-03-22T06:24:59.801Z,2.33
2023-03-22T06:27:26.279Z,2.42
2023-03-22T06:29:52.730Z,2.50
2023-03-22T06:32:19.593Z,2.40
2023-03-22T06:34:46.165Z,2.90
2023-03-22T06:37:12.840Z,2.05
2023-03-22T06:39:39.496Z,2.70
2023-03-22T06:42:06.111Z,2.22
2023-03-22T06:44:32.679Z,2.87
2023-03-22T06:46:59.340Z,2.10
2023-03-22T06:49:26.114Z,2.08
2023-03-22T06:51:52.808Z,2.22
2023-03-22T06:54:19.622Z,3.10
2023-03-22T06:56:46.239Z,2.80
2023-03-22T06:59:12.712Z,2.05
2023-03-22T07:01:39.748Z,2.40
2023-03-22T07:04:06.373Z,2.92
2023-03-22T07:06:32.979Z,2.50
2023-03-22T07:08:59.488Z,2.60
2023-03-22T07:11:25.941Z,2.75
2023-03-22T07:13:55.560Z,2.70
2023-03-22T07:16:22.860Z,2.63
2023-03-22T07:18:49.482Z,2.80
2023-03-22T07:21:16.091Z,2.70
2023-03-22T07:23:42.766Z,2.97
2023-03-22T07:26:09.530Z,2.70
2023-03-22T07:28:36.023Z,3.30
2023-03-22T07:31:05.417Z,3.00
2023-03-22T07:33:32.077Z,2.73
2023-03-22T07:35:58.791Z,3.20
2023-03-22T07:38:25.454Z,2.70
2023-03-22T07:40:53.445Z,2.63
2023-03-22T07:43:20.266Z,3.20
2023-03-22T07:45:49.109Z,3.10
2023-03-22T07:48:15.717Z,3.72
2023-03-22T07:50:42.346Z,4.55
2023-03-22T07:53:09.559Z,4.47
2023-03-22T07:55:37.116Z,3.90
2023-03-22T07:58:04.007Z,3.63
2023-03-22T08:00:30.582Z,3.72
2023-03-22T08:02:57.098Z,3.30
2023-03-22T08:05:24.195Z,3.20
2023-03-22T08:07:50.678Z,3.08
2023-03-22T08:10:17.411Z,2.63
2023-03-22T08:12:44.405Z,3.30
2023-03-22T08:15:11.529Z,3.00
2023-03-22T08:17:38.853Z,2.80
2023-03-22T08:20:06.483Z,2.90
2023-03-22T08:22:32.965Z,3.00
2023-03-22T08:24:59.410Z,3.10
2023-03-22T08:27:25.898Z,2.90
2023-03-22T08:29:52.371Z,2.90
2023-03-22T08:32:19.161Z,2.70
2023-03-22T08:34:45.940Z,3.47
2023-03-22T08:37:13.398Z,3.15
2023-03-22T08:39:40.112Z,3.00
2023-03-22T08:42:06.669Z,3.15
2023-03-22T08:44:33.148Z,3.20
2023-03-22T08:47:01.144Z,3.67
2023-03-22T08:49:28.960Z,2.92
2023-03-22T08:51:55.460Z,2.65
2023-03-22T08:54:22.063Z,3.40
2023-03-22T08:56:48.800Z,3.28
2023-03-22T08:59:15.350Z,3.50
2023-03-22T09:01:42.434Z,2.95
2023-03-22T09:04:10.635Z,3.30
2023-03-22T09:06:37.488Z,3.25
2023-03-22T09:09:04.115Z,3.50
2023-03-22T09:11:30.589Z,2.90
2023-03-22T09:13:57.039Z,2.90
2023-03-22T09:16:23.585Z,2.80
2023-03-22T09:18:50.056Z,2.70
2023-03-22T09:21:16.857Z,2.83
2023-03-22T09:23:43.447Z,3.27
2023-03-22T09:26:09.962Z,3.15
2023-03-22T09:28:36.716Z,3.00
2023-03-22T09:31:08.544Z,3.10
2023-03-22T09:33:36.150Z,3.53
2023-03-22T09:36:03.094Z,3.20
2023-03-22T09:38:29.660Z,3.53
2023-03-22T09:41:00.536Z,3.38
2023-03-22T09:43:34.376Z,3.08
2023-03-22T09:46:03.297Z,3.75
2023-03-22T09:48:39.405Z,3.30
2023-03-22T09:51:16.017Z,3.28
2023-03-22T09:53:42.764Z,3.75
2023-03-22T09:56:27.504Z,3.60
2023-03-22T09:59:04.922Z,3.10
2023-03-22T10:01:38.932Z,3.00
2023-03-22T10:04:21.053Z,3.13
2023-03-22T10:07:01.796Z,3.30
2023-03-22T10:09:53.460Z,3.10
2023-03-22T10:12:43.345Z,3.30
2023-03-22T10:15:19.532Z,3.33
2023-03-22T10:17:52.573Z,3.40
2023-03-22T10:20:31.480Z,3.20
2023-03-22T10:23:01.028Z,3.22
2023-03-22T10:25:37.073Z,3.42
2023-03-22T10:28:26.937Z,3.00
2023-03-22T10:30:56.410Z,3.13
2023-03-22T10:33:49.933Z,3.65
2023-03-22T10:36:19.795Z,3.85
2023-03-22T10:38:49.943Z,3.78
2023-03-22T10:41:18.675Z,3.13
2023-03-22T10:43:50.207Z,3.80
2023-03-22T10:46:21.009Z,3.70
2023-03-22T10:48:54.792Z,3.42
2023-03-22T10:51:29.400Z,3.63
2023-03-22T10:53:56.724Z,3.20
2023-03-22T10:56:23.239Z,3.30
2023-03-22T10:58:55.106Z,3.60
2023-03-22T11:01:28.189Z,3.15
2023-03-22T11:04:09.757Z,3.40
2023-03-22T11:06:56.294Z,3.23
2023-03-22T11:09:24.624Z,3.13
2023-03-22T11:11:57.016Z,3.20
2023-03-22T11:14:34.718Z,3.30
2023-03-22T11:17:07.389Z,2.95
2023-03-22T11:19:40.334Z,4.23
2023-03-22T11:22:38.423Z,3.30
2023-03-22T11:25:20.748Z,3.35
2023-03-22T11:27:57.086Z,3.85
2023-03-22T11:30:28.848Z,4.20
2023-03-22T11:33:02.639Z,4.43
2023-03-22T11:35:30.872Z,4.43
2023-03-22T11:37:58.031Z,4.22
2023-03-22T11:40:34.281Z,3.70
2023-03-22T11:43:20.349Z,3.88
2023-03-22T11:45:50.485Z,3.87
2023-03-22T11:48:26.341Z,4.30
2023-03-22T11:50:55.806Z,3.85
2023-03-22T11:53:27.902Z,4.15
2023-03-22T11:55:56.964Z,4.03
2023-03-22T11:58:29.876Z,4.20
2023-03-22T12:01:00.612Z,4.10
2023-03-22T12:03:31.281Z,4.55
2023-03-22T12:06:01.491Z,4.38
2023-03-22T12:08:42.664Z,4.55
2023-03-22T12:11:17.713Z,4.63
2023-03-22T12:13:53.526Z,4.72
2023-03-22T12:16:29.295Z,4.05
2023-03-22T12:19:23.825Z,4.05
2023-03-22T12:21:51.495Z,3.83
2023-03-22T12:24:30.724Z,3.63
2023-03-22T12:27:10.606Z,3.90
2023-03-22T12:29:39.689Z,3.50
2023-03-22T12:32:13.262Z,2.90
2023-03-22T12:34:44.751Z,3.58
2023-03-22T12:37:20.778Z,2.90
2023-03-22T12:39:53.880Z,3.00
2023-03-22T12:43:02.245Z,3.10
2023-03-22T12:45:33.737Z,3.33
2023-03-22T12:48:04.008Z,3.40
2023-03-22T12:50:42.419Z,3.43
2023-03-22T12:53:15.140Z,3.47
2023-03-22T12:55:44.519Z,3.15
2023-03-22T12:58:14.730Z,2.90
2023-03-22T13:00:44.215Z,3.53
2023-03-22T13:03:16.927Z,3.50
2023-03-22T13:05:49.640Z,3.10
2023-03-22T13:08:22.835Z,3.38
2023-03-22T13:11:03.487Z,4.00
2023-03-22T13:13:29.938Z,4.07
2023-03-22T13:15:56.344Z,3.83
2023-03-22T13:18:38.658Z,4.45
2023-03-22T13:21:20.554Z,4.75
2023-03-22T13:24:00.859Z,5.10
2023-03-22T13:26:42.397Z,5.10
2023-03-22T13:29:18.383Z,4.53
2023-03-22T13:31:56.243Z,5.20
2023-03-22T13:34:32.616Z,5.53
2023-03-22T13:37:00.127Z,5.90
2023-03-22T13:39:32.735Z,6.72
2023-03-22T13:42:14.423Z,6.17
2023-03-22T13:44:41.501Z,6.70
2023-03-22T13:47:29.829Z,6.85
2023-03-22T13:50:17.168Z,6.90
2023-03-22T13:52:56.735Z,6.93
2023-03-22T13:55:47.256Z,7.17
2023-03-22T13:58:52.755Z,6.93
2023-03-22T14:01:45.479Z,6.22
2023-03-22T14:04:16.663Z,6.80
2023-03-22T14:07:07.965Z,6.80
2023-03-22T14:09:49.545Z,7.00
2023-03-22T14:12:24.656Z,6.85
2023-03-22T14:14:56.918Z,7.65
2023-03-22T14:18:02.308Z,9.88
2023-03-22T14:20:35.452Z,7.30
